Time;durP1;ratioP1;P1;durP2;ratioP2;P2;SDS_P1;SDS_P2;PMS_P1;PMS_P2;Temp;Humidity;BMP_temperature;BMP_pressure;BME280_temperature;BME280_humidity;BME280_pressure;Samples;Min_cycle;Max_cycle;Signal;HPM_P1;HPM_P2
2021/05/14 00:00:29;;;;;;;25.60;5.32;;;;;;;31.65;60.34;100666.09;5056901;28;69907;-39
2021/05/14 00:03:00;;;;;;;22.30;5.40;;;;;;;31.62;60.47;100655.69;5061737;28;66752;-38
2021/05/14 00:05:30;;;;;;;12.95;5.32;;;;;;;31.84;59.48;100685.81;5065064;28;70151;-39
2021/05/14 00:08:01;;;;;;;11.35;4.55;;;;;;;31.83;60.15;100679.59;5054969;28;66638;-37
2021/05/14 00:10:34;;;;;;;10.57;5.10;;;;;;;31.86;60.79;100685.59;5058749;28;69886;-37
2021/05/14 00:13:07;;;;;;;15.07;4.95;;;;;;;31.49;60.65;100629.63;5053298;28;66570;-37
2021/05/14 00:15:37;;;;;;;25.40;6.07;;;;;;;31.90;61.17;100695.78;5061867;28;69895;-37
2021/05/14 00:18:07;;;;;;;19.92;5.95;;;;;;;32.03;60.55;100706.44;5060043;28;66287;-37
2021/05/14 00:20:38;;;;;;;12.55;5.60;;;;;;;32.02;59.96;100698.53;5057800;28;70467;-38
2021/05/14 00:23:10;;;;;;;9.48;5.05;;;;;;;32.10;59.71;100721.81;5062116;27;66222;-37
2021/05/14 00:25:41;;;;;;;5.85;4.70;;;;;;;32.19;59.22;100723.13;5057153;28;69537;-37
2021/05/14 00:28:12;;;;;;;10.30;5.53;;;;;;;32.20;59.05;100739.16;5056298;28;65258;-38
2021/05/14 00:30:42;;;;;;;9.88;4.80;;;;;;;32.19;58.82;100736.69;5058957;28;70338;-37
2021/05/14 00:33:13;;;;;;;5.60;5.07;;;;;;;32.16;58.85;100720.88;5053750;28;66012;-37
2021/05/14 00:35:44;;;;;;;11.13;4.78;;;;;;;32.00;58.82;100696.03;5052300;28;69702;-37
2021/05/14 00:38:14;;;;;;;6.22;5.60;;;;;;;32.25;58.33;100735.75;5056722;28;65148;-37
2021/05/14 00:40:44;;;;;;;5.97;4.50;;;;;;;32.22;58.90;100730.78;5065224;28;69960;-38
2021/05/14 00:43:14;;;;;;;5.53;4.82;;;;;;;32.05;58.71;100717.88;5050130;28;66771;-38
2021/05/14 00:45:44;;;;;;;6.68;4.93;;;;;;;32.23;58.21;100735.16;5061450;28;68936;-39
2021/05/14 00:48:15;;;;;;;6.88;4.95;;;;;;;32.19;58.40;100739.41;5055633;28;65537;-39
2021/05/14 00:50:45;;;;;;;5.22;4.72;;;;;;;32.24;58.14;100744.97;5054661;28;70290;-38
2021/05/14 00:53:15;;;;;;;5.50;4.88;;;;;;;32.20;58.63;100749.19;5054927;28;65306;-38
2021/05/14 00:55:46;;;;;;;8.27;5.10;;;;;;;32.19;58.28;100758.41;5057847;28;69777;-38
2021/05/14 00:58:16;;;;;;;5.28;4.78;;;;;;;32.19;58.10;100755.69;5047738;28;67235;-38
2021/05/14 01:00:46;;;;;;;5.18;4.70;;;;;;;32.30;58.02;100765.72;5058413;28;69648;-38
2021/05/14 01:03:16;;;;;;;6.80;4.22;;;;;;;32.27;57.77;100761.59;5057007;28;65234;-37
2021/05/14 01:05:47;;;;;;;5.68;5.18;;;;;;;32.11;57.67;100718.03;5055872;28;70230;-38
2021/05/14 01:08:17;;;;;;;6.00;4.95;;;;;;;32.31;57.27;100734.81;5056810;28;65896;-38
2021/05/14 01:10:50;;;;;;;5.82;5.43;;;;;;;32.37;57.40;100744.72;5056062;28;68383;-38
2021/05/14 01:13:32;;;;;;;8.07;7.38;;;;;;;31.86;57.81;100656.59;5059944;28;66667;-38
2021/05/14 01:16:03;;;;;;;9.60;8.75;;;;;;;32.33;57.10;100721.84;5055468;28;69478;-38
2021/05/14 01:18:33;;;;;;;10.20;9.30;;;;;;;32.42;57.50;100742.13;5057023;28;66807;-38
2021/05/14 01:21:04;;;;;;;10.88;9.93;;;;;;;32.44;58.11;100745.44;5056850;28;69625;-38
2021/05/14 01:23:34;;;;;;;16.02;10.35;;;;;;;32.52;58.14;100748.94;5055373;28;65954;-38
2021/05/14 01:26:16;;;;;;;12.40;10.52;;;;;;;32.36;58.35;100721.38;5057592;28;70525;-37
2021/05/14 01:28:48;;;;;;;12.70;11.45;;;;;;;32.52;58.61;100757.06;5056097;28;65984;-37
2021/05/14 01:31:19;;;;;;;12.63;11.40;;;;;;;32.52;58.83;100751.66;5055110;28;69934;-37
2021/05/14 01:33:50;;;;;;;12.77;11.57;;;;;;;32.51;59.06;100755.41;5045044;28;65124;-38
2021/05/14 01:36:21;;;;;;;13.55;11.73;;;;;;;32.46;59.12;100761.56;5051734;28;69842;-37
2021/05/14 01:38:51;;;;;;;12.95;11.82;;;;;;;32.51;59.71;100760.84;5055484;28;66047;-37
2021/05/14 01:41:22;;;;;;;13.32;11.93;;;;;;;32.52;59.74;100781.50;5049601;28;69681;-37
2021/05/14 01:43:52;;;;;;;13.77;12.52;;;;;;;32.51;59.63;100766.25;5055989;28;67011;-36
2021/05/14 01:46:23;;;;;;;14.80;12.50;;;;;;;32.59;59.41;100765.91;5052090;28;70886;-38
2021/05/14 01:48:54;;;;;;;18.50;12.27;;;;;;;32.43;59.21;100732.09;5055087;28;66574;-37
2021/05/14 01:51:26;;;;;;;14.63;12.15;;;;;;;32.65;59.36;100773.13;5057171;28;69808;-37
2021/05/14 01:53:56;;;;;;;13.48;12.20;;;;;;;32.70;59.14;100770.53;5055406;28;65034;-38
2021/05/14 01:56:27;;;;;;;13.38;12.15;;;;;;;32.77;58.92;100765.81;5056516;28;69004;-39
2021/05/14 01:58:59;;;;;;;13.23;12.10;;;;;;;32.70;59.47;100759.66;5052577;28;66048;-38
2021/05/14 02:01:30;;;;;;;13.60;12.43;;;;;;;32.82;59.13;100763.22;5054575;28;69737;-37
2021/05/14 02:04:00;;;;;;;11.85;11.15;;;;;;;32.83;59.03;100745.84;5047356;28;65969;-37
2021/05/14 02:06:31;;;;;;;12.75;11.18;;;;;;;32.79;59.23;100731.09;5053853;28;69121;-40
2021/05/14 02:09:05;;;;;;;12.80;11.60;;;;;;;32.83;58.90;100726.03;5055459;28;65638;-37
2021/05/14 02:11:35;;;;;;;12.10;11.05;;;;;;;32.97;59.04;100753.78;5055609;28;69846;-37
2021/05/14 02:14:06;;;;;;;11.57;10.67;;;;;;;33.04;58.82;100757.19;5052096;28;64808;-38
2021/05/14 02:16:37;;;;;;;11.85;10.85;;;;;;;33.06;58.79;100749.66;5053951;28;69025;-38
2021/05/14 02:19:13;;;;;;;12.55;11.57;;;;;;;33.10;58.60;100743.50;5053185;28;66263;-37
2021/05/14 02:21:44;;;;;;;10.32;9.52;;;;;;;33.08;58.75;100744.81;5050566;28;70632;-38
2021/05/14 02:24:14;;;;;;;10.38;9.65;;;;;;;33.09;58.46;100741.84;5052831;28;65817;-37
2021/05/14 02:26:45;;;;;;;11.20;10.10;;;;;;;33.01;58.48;100719.63;5054870;28;69852;-37
2021/05/14 02:29:15;;;;;;;10.88;9.90;;;;;;;32.48;58.40;100621.78;5053351;28;65029;-38
2021/05/14 02:31:46;;;;;;;9.88;9.18;;;;;;;33.21;58.30;100733.69;5057342;28;69804;-37
2021/05/14 02:34:17;;;;;;;10.65;9.75;;;;;;;33.25;58.57;100734.84;5049468;28;65814;-37
2021/05/14 02:36:48;;;;;;;9.50;8.80;;;;;;;33.28;58.31;100734.34;5054097;28;70189;-37
2021/05/14 02:39:18;;;;;;;9.80;9.00;;;;;;;33.18;58.00;100723.25;5056156;28;65878;-38
2021/05/14 02:41:49;;;;;;;9.82;9.13;;;;;;;33.14;58.16;100712.06;5057147;27;68983;-37
2021/05/14 02:44:20;;;;;;;9.23;8.52;;;;;;;33.33;58.15;100747.25;5051599;28;66004;-37
2021/05/14 02:46:51;;;;;;;9.35;8.55;;;;;;;33.41;58.14;100743.31;5056216;28;68718;-37
2021/05/14 02:49:23;;;;;;;9.57;8.07;;;;;;;33.46;58.05;100732.53;5052533;28;66098;-37
2021/05/14 02:51:54;;;;;;;11.93;8.10;;;;;;;33.41;57.92;100727.81;5055759;28;69360;-36
2021/05/14 02:54:26;;;;;;;8.88;8.10;;;;;;;33.50;57.90;100739.16;5060709;28;66028;-37
2021/05/14 02:56:56;;;;;;;8.13;7.55;;;;;;;33.55;57.92;100739.28;5053752;28;70144;-36
2021/05/14 02:59:28;;;;;;;8.80;8.20;;;;;;;33.44;57.66;100712.94;5059889;28;66295;-37
2021/05/14 03:02:02;;;;;;;8.25;7.65;;;;;;;33.56;57.67;100728.16;5053358;28;71103;-37
2021/05/14 03:04:33;;;;;;;8.25;7.65;;;;;;;33.61;57.69;100716.56;5054699;28;66042;-38
2021/05/14 03:07:06;;;;;;;9.00;7.30;;;;;;;33.54;57.66;100710.41;5059524;28;69812;-37
2021/05/14 03:09:36;;;;;;;7.93;7.20;;;;;;;33.62;57.40;100712.75;5054789;28;66048;-37
2021/05/14 03:12:08;;;;;;;7.95;7.03;;;;;;;33.69;57.21;100708.00;5061077;28;69254;-37
2021/05/14 03:14:38;;;;;;;8.13;7.40;;;;;;;33.71;57.30;100716.75;5055166;28;65362;-37
2021/05/14 03:17:11;;;;;;;7.25;6.65;;;;;;;33.68;57.48;100703.59;5040550;28;69022;-37
2021/05/14 03:19:41;;;;;;;7.05;6.55;;;;;;;33.76;57.15;100714.09;5065130;28;65395;-37
2021/05/14 03:22:12;;;;;;;7.30;6.75;;;;;;;33.76;57.20;100703.22;5074702;27;69858;-36
2021/05/14 03:24:42;;;;;;;7.28;6.32;;;;;;;33.83;57.10;100713.16;5068390;28;65979;-37
2021/05/14 03:27:13;;;;;;;6.55;6.00;;;;;;;33.81;57.01;100694.34;5072917;27;69980;-36
2021/05/14 03:29:43;;;;;;;7.80;6.55;;;;;;;33.90;56.79;100695.56;5072691;27;66268;-38
2021/05/14 03:32:14;;;;;;;6.53;6.07;;;;;;;33.84;56.86;100682.13;5070702;28;69619;-37
2021/05/14 03:34:45;;;;;;;6.70;6.07;;;;;;;33.90;56.74;100686.59;5046622;28;66069;-37
2021/05/14 03:37:15;;;;;;;6.10;5.70;;;;;;;33.97;56.54;100695.44;5043843;28;70148;-37
2021/05/14 03:39:50;;;;;;;5.70;5.25;;;;;;;33.98;56.72;100683.47;5046219;28;66271;-37
2021/05/14 03:42:23;;;;;;;6.45;5.95;;;;;;;34.08;56.31;100694.56;5065207;28;69788;-37
2021/05/14 03:44:56;;;;;;;7.85;6.20;;;;;;;34.12;56.49;100701.16;5066590;27;66317;-37
2021/05/14 03:47:27;;;;;;;6.03;5.68;;;;;;;34.09;56.19;100696.22;5062747;27;69081;-39
2021/05/14 03:49:59;;;;;;;5.57;5.25;;;;;;;34.17;56.31;100709.41;5059803;28;65989;-37
2021/05/14 03:52:33;;;;;;;5.45;5.05;;;;;;;34.19;56.41;100699.09;5052898;28;70970;-37
2021/05/14 03:55:04;;;;;;;5.95;5.40;;;;;;;34.20;56.05;100692.56;5065499;28;66526;-38
2021/05/14 03:57:35;;;;;;;5.38;4.95;;;;;;;34.24;56.04;100691.03;5050684;27;70151;-37
2021/05/14 04:00:07;;;;;;;6.75;5.00;;;;;;;34.28;55.72;100679.63;5065606;27;66953;-37
2021/05/14 04:02:37;;;;;;;5.45;4.95;;;;;;;34.09;56.04;100647.22;5055452;28;69424;-37
2021/05/14 04:05:11;;;;;;;6.43;5.18;;;;;;;34.29;55.81;100673.09;5053098;28;66271;-37
2021/05/14 04:07:42;;;;;;;9.13;5.00;;;;;;;34.32;56.02;100664.44;5058224;28;70115;-37
2021/05/14 04:10:18;;;;;;;4.90;4.60;;;;;;;34.42;55.50;100667.31;5056617;28;66818;-36
2021/05/14 04:15:39;;;;;;;5.00;4.60;;;;;;;34.06;55.82;100593.28;5053556;28;66541;-37
2021/05/14 04:18:10;;;;;;;7.65;4.10;;;;;;;34.37;55.26;100620.94;5054947;28;69719;-36
2021/05/14 04:20:41;;;;;;;;;;;;;;;34.40;55.64;100625.88;5064130;28;66439;-36
2021/05/14 04:23:12;;;;;;;4.68;4.38;;;;;;;34.50;55.37;100626.03;5058282;28;70056;-37
2021/05/14 04:25:43;;;;;;;5.47;4.18;;;;;;;34.34;55.33;100589.59;5053609;28;66397;-37
2021/05/14 04:28:15;;;;;;;4.80;4.47;;;;;;;34.34;55.00;100577.88;5050038;28;69627;-37
2021/05/14 04:30:45;;;;;;;4.55;4.03;;;;;;;34.61;55.08;100622.41;5060486;28;65782;-38
2021/05/14 04:33:16;;;;;;;4.90;4.40;;;;;;;34.63;54.96;100608.53;5056985;28;70824;-37
2021/05/14 04:35:48;;;;;;;6.43;4.40;;;;;;;34.66;54.96;100603.41;5054657;28;66411;-37
2021/05/14 04:38:22;;;;;;;4.57;4.18;;;;;;;34.68;55.32;100590.34;5051803;28;70156;-36
2021/05/14 04:40:58;;;;;;;3.97;3.70;;;;;;;34.63;54.79;100573.97;5057669;28;66319;-37
2021/05/14 04:43:28;;;;;;;4.22;3.78;;;;;;;34.65;54.70;100562.78;5064781;28;69198;-38
2021/05/14 04:46:08;;;;;;;3.85;3.55;;;;;;;34.69;54.85;100563.94;5056058;28;67219;-37
2021/05/14 04:48:57;;;;;;;4.20;3.90;;;;;;;34.79;54.82;100574.94;5053452;28;71108;-36
2021/05/14 04:51:29;;;;;;;4.05;3.75;;;;;;;34.76;54.46;100555.56;5056453;28;66033;-37
2021/05/14 04:54:01;;;;;;;4.68;3.95;;;;;;;34.86;54.47;100566.59;5054667;28;71527;-37
2021/05/14 04:56:32;;;;;;;3.60;3.30;;;;;;;34.87;54.60;100554.59;5059655;27;65532;-37
2021/05/14 04:59:04;;;;;;;3.65;3.35;;;;;;;34.87;54.40;100560.06;5057253;28;70141;-36
2021/05/14 05:01:34;;;;;;;3.70;3.40;;;;;;;34.89;54.41;100553.28;5055478;28;66156;-38
2021/05/14 05:04:05;;;;;;;8.52;3.65;;;;;;;34.90;54.30;100557.63;5055198;28;70615;-36
2021/05/14 05:06:37;;;;;;;4.00;3.70;;;;;;;34.82;54.28;100540.91;5051199;28;65668;-37
2021/05/14 05:09:08;;;;;;;4.15;3.85;;;;;;;34.79;54.15;100536.81;5058207;28;69957;-37
2021/05/14 05:11:38;;;;;;;6.47;3.38;;;;;;;34.93;54.46;100556.31;5060357;28;66277;-36
2021/05/14 05:14:09;;;;;;;3.60;3.30;;;;;;;34.88;54.36;100551.63;5051142;28;69849;-38
2021/05/14 05:16:44;;;;;;;5.40;3.10;;;;;;;34.93;54.36;100556.31;5056740;28;65691;-37
2021/05/14 05:19:14;;;;;;;3.60;3.30;;;;;;;34.91;54.59;100553.03;5059012;28;70345;-37
2021/05/14 05:21:46;;;;;;;3.72;3.42;;;;;;;34.94;54.45;100544.34;5054286;28;65170;-36
2021/05/14 05:24:16;;;;;;;3.72;3.45;;;;;;;34.95;54.26;100545.97;5033092;28;70138;-36
2021/05/14 05:26:48;;;;;;;3.40;3.10;;;;;;;34.91;54.55;100542.13;5055019;28;65621;-37
2021/05/14 05:29:19;;;;;;;3.17;2.90;;;;;;;34.91;54.33;100539.41;5050895;28;69769;-37
2021/05/14 05:31:50;;;;;;;4.43;3.13;;;;;;;34.95;54.51;100543.25;5055202;28;66277;-37
2021/05/14 05:34:24;;;;;;;2.88;2.67;;;;;;;34.97;54.79;100538.38;5059820;28;69618;-36
2021/05/14 05:36:56;;;;;;;4.18;3.20;;;;;;;35.01;54.30;100525.88;5058963;27;66096;-36
2021/05/14 05:39:27;;;;;;;3.15;2.85;;;;;;;35.00;54.61;100518.78;5053668;28;70039;-36
2021/05/14 05:41:58;;;;;;;3.08;2.88;;;;;;;34.99;54.44;100516.31;5056525;28;65070;-37
2021/05/14 05:44:29;;;;;;;4.32;2.95;;;;;;;35.00;54.50;100516.06;5055170;28;70044;-36
2021/05/14 05:46:59;;;;;;;3.08;2.88;;;;;;;34.79;54.76;100476.03;5045984;28;66114;-36
2021/05/14 05:49:31;;;;;;;3.97;2.88;;;;;;;35.05;54.25;100502.47;5052366;28;70066;-37
2021/05/14 05:52:03;;;;;;;2.47;2.28;;;;;;;35.06;54.44;100500.59;5056668;28;65885;-37
2021/05/14 05:54:35;;;;;;;3.08;2.78;;;;;;;35.03;54.30;100499.19;5052785;28;68808;-37
2021/05/14 05:57:06;;;;;;;2.60;2.40;;;;;;;35.02;54.43;100499.44;5053566;28;65277;-39
2021/05/14 05:59:38;;;;;;;2.90;2.70;;;;;;;34.90;54.21;100461.44;5054789;28;69903;-38
2021/05/14 06:02:09;;;;;;;2.97;2.78;;;;;;;35.09;54.54;100481.81;5056697;28;66601;-36
2021/05/14 06:04:40;;;;;;;2.38;2.22;;;;;;;35.02;54.72;100464.84;5055773;28;69873;-37
2021/05/14 06:07:10;;;;;;;2.47;2.27;;;;;;;35.16;54.28;100480.78;5053813;28;66090;-37
2021/05/14 06:09:43;;;;;;;2.70;2.47;;;;;;;35.18;54.40;100462.25;5056020;28;70147;-37
2021/05/14 06:12:15;;;;;;;3.22;2.72;;;;;;;35.19;54.22;100458.44;5035320;28;65970;-37
2021/05/14 06:14:46;;;;;;;5.03;2.22;;;;;;;35.22;54.30;100449.78;5043440;28;69979;-36
2021/05/14 06:17:18;;;;;;;2.63;2.30;;;;;;;35.27;54.20;100455.25;5054662;28;66133;-36
2021/05/14 06:19:57;;;;;;;2.80;2.10;;;;;;;35.27;53.77;100439.72;5054744;28;70821;-37
2021/05/14 06:22:28;;;;;;;2.85;2.08;;;;;;;35.27;54.10;100434.28;5055132;27;66985;-37
2021/05/14 06:25:00;;;;;;;2.63;2.43;;;;;;;35.35;53.53;100441.13;5052175;28;71145;-37
2021/05/14 06:27:30;;;;;;;2.25;2.05;;;;;;;35.31;53.39;100437.28;5045768;28;65229;-42
2021/05/14 06:30:04;;;;;;;2.75;2.53;;;;;;;35.06;53.85;100373.31;5052666;28;69553;-37
2021/05/14 06:32:35;;;;;;;2.45;2.25;;;;;;;35.40;53.27;100415.81;5055275;28;67372;-37
2021/05/14 06:35:07;;;;;;;2.33;2.13;;;;;;;35.41;53.63;100418.28;5052327;28;70891;-36
2021/05/14 06:37:38;;;;;;;3.88;2.17;;;;;;;35.45;53.64;100424.84;5052589;28;66305;-37
2021/05/14 06:40:09;;;;;;;2.45;2.25;;;;;;;35.44;53.25;100393.22;5068821;28;69039;-36
2021/05/14 06:42:44;;;;;;;3.22;2.35;;;;;;;35.45;53.12;100388.56;5047567;28;66321;-36
2021/05/14 06:45:16;;;;;;;2.10;1.90;;;;;;;35.55;53.68;100389.47;5052378;28;69723;-36
2021/05/14 06:47:46;;;;;;;3.53;1.90;;;;;;;35.58;53.45;100388.97;5053246;28;65860;-35
2021/05/14 06:50:17;;;;;;;2.83;2.25;;;;;;;35.60;53.49;100385.94;5055609;28;70806;-37
2021/05/14 06:52:48;;;;;;;3.00;2.37;;;;;;;35.62;53.37;100382.97;5056404;28;66083;-36
2021/05/14 06:55:24;;;;;;;2.95;2.47;;;;;;;35.61;53.44;100373.13;5063356;28;70224;-36
2021/05/14 06:57:56;;;;;;;4.15;2.90;;;;;;;35.60;53.30;100376.94;5054632;27;65327;-36
2021/05/14 07:00:27;;;;;;;1.93;1.83;;;;;;;35.66;52.87;100375.88;5051612;28;70350;-37
2021/05/14 07:03:00;;;;;;;3.88;2.40;;;;;;;35.46;53.32;100371.94;5050929;28;66025;-38
2021/05/14 07:05:31;;;;;;;2.13;1.92;;;;;;;35.72;53.07;100385.75;5067960;28;69683;-37
2021/05/14 07:08:03;;;;;;;2.65;1.88;;;;;;;35.50;53.34;100347.69;5054041;28;65994;-36
2021/05/14 07:10:34;;;;;;;2.92;2.10;;;;;;;35.61;53.12;100362.22;5056095;28;70908;-36
2021/05/14 07:13:04;;;;;;;3.45;2.25;;;;;;;35.69;53.19;100365.28;5051458;28;66048;-37
2021/05/14 07:15:36;;;;;;;2.53;2.05;;;;;;;35.71;52.77;100354.91;5051806;28;69163;-39
2021/05/14 07:18:07;;;;;;;2.10;1.90;;;;;;;35.68;52.80;100355.44;5042987;28;66233;-38
2021/05/14 07:20:38;;;;;;;3.70;2.03;;;;;;;35.74;52.71;100350.81;5059270;28;69828;-37
2021/05/14 07:23:10;;;;;;;2.90;2.17;;;;;;;35.73;52.37;100349.19;5052183;28;66674;-36
2021/05/14 07:25:42;;;;;;;2.95;1.75;;;;;;;35.75;52.81;100341.56;5053936;28;69287;-37
2021/05/14 07:28:17;;;;;;;5.38;1.77;;;;;;;35.78;52.55;100346.50;5055151;28;65097;-37
2021/05/14 07:30:54;;;;;;;2.30;2.00;;;;;;;35.78;52.96;100341.84;5068824;27;70748;-38
2021/05/14 07:33:28;;;;;;;6.32;2.00;;;;;;;35.80;52.85;100334.22;5055335;28;65468;-37
2021/05/14 07:35:59;;;;;;;4.28;1.90;;;;;;;35.80;52.43;100323.31;5049917;28;69490;-36
2021/05/14 07:38:31;;;;;;;8.20;2.10;;;;;;;35.80;52.50;100303.38;5056094;28;66773;-37
2021/05/14 07:41:02;;;;;;;3.10;1.88;;;;;;;35.72;52.72;100304.72;5053106;28;69795;-37
2021/05/14 07:43:33;;;;;;;2.05;1.85;;;;;;;35.82;52.54;100314.03;5054172;28;66406;-36
2021/05/14 07:46:05;;;;;;;3.78;2.17;;;;;;;35.73;52.86;100306.34;5041368;28;69007;-37
2021/05/14 07:48:37;;;;;;;1.58;1.48;;;;;;;35.75;52.86;100308.81;5056833;28;65736;-37
2021/05/14 07:51:11;;;;;;;2.10;1.73;;;;;;;35.82;52.77;100320.28;5049995;28;69778;-38
2021/05/14 07:53:42;;;;;;;3.53;2.20;;;;;;;35.73;52.88;100316.44;5055901;28;65985;-37
2021/05/14 07:56:13;;;;;;;2.67;1.67;;;;;;;35.83;52.72;100332.03;5052617;28;69752;-36
2021/05/14 07:58:45;;;;;;;3.15;1.98;;;;;;;35.84;52.20;100333.69;5058608;27;65229;-36
2021/05/14 08:01:17;;;;;;;4.18;1.92;;;;;;;35.82;52.49;100320.28;5050187;28;69216;-37
2021/05/14 08:03:53;;;;;;;2.33;1.83;;;;;;;35.66;52.33;100283.97;5047131;28;66093;-37
2021/05/14 08:06:27;;;;;;;2.17;1.42;;;;;;;35.81;52.84;100307.75;5063592;28;69282;-37
2021/05/14 08:09:05;;;;;;;4.15;1.65;;;;;;;35.80;52.65;100306.09;5050574;28;65865;-37
2021/05/14 08:11:35;;;;;;;2.85;1.80;;;;;;;35.71;52.50;100292.16;5056275;28;69800;-36
2021/05/14 08:14:08;;;;;;;6.90;1.45;;;;;;;35.77;52.79;100301.16;5057056;27;66152;-37
2021/05/14 08:16:42;;;;;;;2.72;1.70;;;;;;;35.77;52.51;100301.16;5051053;28;70056;-37
2021/05/14 08:19:14;;;;;;;7.35;2.00;;;;;;;35.79;52.72;100299.00;5073014;27;66022;-36
2021/05/14 08:21:48;;;;;;;4.15;1.92;;;;;;;35.75;52.38;100293.28;5046549;28;70129;-37
2021/05/14 08:24:18;;;;;;;2.17;1.80;;;;;;;35.72;52.75;100287.53;5049821;28;66314;-38
2021/05/14 08:26:49;;;;;;;2.95;1.92;;;;;;;35.79;52.36;100288.09;5051949;28;70442;-36
2021/05/14 08:29:22;;;;;;;6.20;1.77;;;;;;;35.76;52.84;100294.09;5051737;28;68786;-36
2021/05/14 08:31:54;;;;;;;2.80;1.83;;;;;;;35.73;52.71;100291.91;5056888;28;69301;-37
2021/05/14 08:34:26;;;;;;;4.05;2.03;;;;;;;35.76;52.47;100296.81;5056525;28;66976;-36
2021/05/14 08:37:01;;;;;;;3.35;1.80;;;;;;;35.76;52.72;100294.91;5054490;28;69448;-37
2021/05/14 08:39:32;;;;;;;4.32;2.00;;;;;;;35.71;52.56;100300.34;5057221;28;67888;-37
2021/05/14 08:42:07;;;;;;;4.15;1.95;;;;;;;35.74;52.76;100304.44;5057503;28;69295;-36
2021/05/14 08:44:42;;;;;;;7.03;2.05;;;;;;;35.71;52.82;100302.25;5056807;28;66019;-36
2021/05/14 08:47:14;;;;;;;3.53;1.67;;;;;;;35.73;52.72;100295.44;5057115;28;69750;-36
2021/05/14 08:49:48;;;;;;;8.60;1.73;;;;;;;35.48;52.82;100259.84;5054934;28;65084;-36
2021/05/14 08:52:22;;;;;;;11.88;2.38;;;;;;;35.71;52.55;100307.69;5055774;28;69786;-36
2021/05/14 08:54:58;;;;;;;3.67;2.30;;;;;;;35.41;52.59;100256.53;5055475;28;64737;-37
2021/05/14 08:57:36;;;;;;;4.25;1.80;;;;;;;35.68;53.09;100313.69;5056212;28;69761;-37
2021/05/14 09:00:09;;;;;;;5.53;2.03;;;;;;;35.37;52.89;100261.72;5044419;28;66080;-37
2021/05/14 09:02:42;;;;;;;7.03;1.92;;;;;;;35.62;53.12;100314.78;5056122;28;70189;-36
2021/05/14 09:05:29;;;;;;;4.75;2.15;;;;;;;35.31;52.87;100270.97;5057121;28;65917;-37
2021/05/14 09:08:05;;;;;;;6.07;2.15;;;;;;;35.64;52.87;100328.97;5053869;28;69549;-36
2021/05/14 09:10:37;;;;;;;6.60;2.05;;;;;;;35.45;53.29;100312.22;5057487;28;65015;-37
2021/05/14 09:13:12;;;;;;;3.22;1.70;;;;;;;35.60;53.34;100339.56;5056154;28;70528;-36
2021/05/14 09:15:46;;;;;;;10.70;2.15;;;;;;;35.56;53.35;100342.03;5058430;28;65869;-36
2021/05/14 09:18:21;;;;;;;3.05;1.85;;;;;;;35.23;52.92;100291.38;5055627;28;68904;-37
2021/05/14 09:20:57;;;;;;;4.95;2.13;;;;;;;35.02;53.31;100252.25;5054963;28;65043;-37
2021/05/14 09:23:32;;;;;;;3.20;2.20;;;;;;;35.55;53.36;100337.63;5056169;28;69806;-37
2021/05/14 09:26:12;;;;;;;6.25;2.30;;;;;;;35.52;53.27;100338.16;5055155;28;66174;-37
2021/05/14 09:28:47;;;;;;;5.95;2.20;;;;;;;35.17;52.91;100286.16;5056591;28;69955;-37
2021/05/14 09:31:28;;;;;;;4.05;1.70;;;;;;;35.35;53.38;100334.78;5048395;28;65039;-36
2021/05/14 09:34:01;;;;;;;5.32;1.35;;;;;;;35.48;52.68;100350.69;5054889;28;69926;-37
2021/05/14 09:36:35;;;;;;;2.90;2.17;;;;;;;35.48;53.08;100355.31;5044153;28;65488;-37
2021/05/14 09:39:09;;;;;;;4.65;2.13;;;;;;;35.45;53.09;100364.84;5054797;28;70243;-37
2021/05/14 09:41:44;;;;;;;6.90;1.60;;;;;;;35.45;53.42;100370.28;5056807;28;66310;-37
2021/05/14 09:44:20;;;;;;;6.93;2.10;;;;;;;34.88;53.21;100272.84;5044301;28;69279;-37
2021/05/14 09:46:58;;;;;;;5.95;1.77;;;;;;;35.36;53.53;100371.88;5056735;28;66096;-37
2021/05/14 09:49:32;;;;;;;4.85;1.75;;;;;;;35.37;53.20;100362.63;5055795;28;69937;-37
2021/05/14 09:52:08;;;;;;;2.63;1.60;;;;;;;35.12;53.51;100322.38;5052204;28;66257;-37
2021/05/14 09:54:44;;;;;;;2.85;1.58;;;;;;;35.28;53.01;100336.94;5054157;28;68988;-37
2021/05/14 10:00:05;;;;;;;4.03;1.60;;;;;;;35.03;53.38;100281.13;5056366;28;69699;-37
2021/05/14 10:02:38;;;;;;;5.22;1.88;;;;;;;34.74;53.18;100239.78;5052654;28;65701;-38
2021/05/14 10:05:15;;;;;;;3.67;2.17;;;;;;;35.23;53.62;100328.72;5056829;28;69802;-37
2021/05/14 10:07:47;;;;;;;3.53;1.70;;;;;;;35.22;53.80;100332.53;5051520;28;66060;-40
2021/05/14 10:10:19;;;;;;;4.07;2.03;;;;;;;34.97;53.67;100309.44;5057608;28;69897;-37
2021/05/14 10:12:52;;;;;;;6.30;1.98;;;;;;;35.24;53.42;100363.06;5055685;28;66035;-38
2021/05/14 10:15:22;;;;;;;;;;;;;;;35.12;53.90;100385.88;5053917;28;69114;-37
2021/05/14 10:17:55;;;;;;;2.92;1.88;;;;;;;35.22;53.85;100392.53;5056047;28;66797;-37
2021/05/14 10:20:29;;;;;;;1.92;1.23;;;;;;;35.00;53.69;100352.53;5054878;28;69322;-37
2021/05/14 10:23:02;;;;;;;9.23;1.90;;;;;;;35.22;53.58;100389.78;5054547;28;66796;-37
2021/05/14 10:25:39;;;;;;;5.32;2.03;;;;;;;35.12;53.88;100376.91;5054556;28;69749;-36
2021/05/14 10:28:26;;;;;;;3.10;1.85;;;;;;;35.18;53.71;100375.03;5053267;28;66358;-37
2021/05/14 10:31:09;;;;;;;4.60;1.85;;;;;;;35.16;53.72;100364.41;5044452;28;69784;-38
2021/05/14 10:33:43;;;;;;;3.15;1.90;;;;;;;35.13;53.66;100357.56;5053716;28;65321;-37
2021/05/14 10:36:21;;;;;;;4.63;2.30;;;;;;;35.10;54.09;100358.09;5055725;28;70108;-37
2021/05/14 10:39:21;;;;;;;5.70;1.98;;;;;;;35.02;54.24;100364.00;5052914;28;66331;-37
2021/05/14 10:41:54;;;;;;;6.22;2.03;;;;;;;34.69;54.01;100311.41;5047302;28;69850;-37
2021/05/14 10:44:41;;;;;;;9.73;2.08;;;;;;;35.04;54.04;100375.44;5055687;28;66167;-37
2021/05/14 10:47:42;;;;;;;3.13;2.30;;;;;;;35.01;54.23;100381.41;5057357;28;69532;-37
2021/05/14 10:50:15;;;;;;;4.13;2.10;;;;;;;34.90;54.31;100358.69;5046894;28;65617;-37
2021/05/14 10:53:17;;;;;;;6.85;2.70;;;;;;;34.94;54.41;100391.72;5055769;28;70059;-38
2021/05/14 10:55:48;;;;;;;9.40;2.60;;;;;;;34.95;53.92;100403.44;5057469;28;65148;-37
2021/05/14 10:58:50;;;;;;;5.00;2.72;;;;;;;34.91;54.07;100414.06;5056401;28;70149;-38
2021/05/14 11:01:32;;;;;;;4.25;2.40;;;;;;;34.91;53.96;100428.50;5054451;28;66688;-37
2021/05/14 11:04:25;;;;;;;10.13;2.70;;;;;;;34.82;54.06;100421.03;5057559;28;68876;-38
2021/05/14 11:06:55;;;;;;;10.10;2.92;;;;;;;34.81;54.66;100427.56;5064517;28;66352;-38
2021/05/14 11:09:27;;;;;;;16.48;2.97;;;;;;;34.64;55.10;100425.78;5063629;28;70298;-38
2021/05/14 11:12:10;;;;;;;12.57;3.80;;;;;;;34.46;56.17;100428.81;5060402;28;66591;-37
2021/05/14 11:14:57;;;;;;;13.23;4.07;;;;;;;34.51;56.35;100425.31;5052477;28;69778;-37
2021/05/14 11:17:28;;;;;;;18.20;4.20;;;;;;;34.37;56.66;100414.00;5066180;27;66053;-38
2021/05/14 11:19:58;;;;;;;11.70;3.58;;;;;;;34.32;56.81;100408.50;5061140;28;69805;-39
2021/05/14 11:22:39;;;;;;;9.07;3.70;;;;;;;34.17;57.77;100420.84;5050379;28;65287;-39
2021/05/14 11:25:17;;;;;;;13.73;3.50;;;;;;;34.06;56.90;100400.03;5051774;28;68959;-40
2021/05/14 11:27:51;;;;;;;9.68;3.53;;;;;;;34.26;56.25;100446.56;5051700;28;65921;-42
2021/05/14 11:30:21;;;;;;;14.80;3.10;;;;;;;34.19;56.59;100445.94;5052512;28;69141;-40
2021/05/14 11:32:54;;;;;;;17.40;3.85;;;;;;;34.17;55.79;100453.53;5067886;27;65925;-41
2021/05/14 11:35:25;;;;;;;15.75;4.05;;;;;;;34.12;55.81;100455.38;5052015;28;69410;-40
2021/05/14 11:38:01;;;;;;;19.08;4.38;;;;;;;33.79;55.90;100422.53;5058013;27;66377;-40
2021/05/14 11:40:38;;;;;;;14.65;3.72;;;;;;;34.07;55.65;100468.91;5053637;28;69846;-41
2021/05/14 11:43:12;;;;;;;13.68;3.38;;;;;;;34.02;55.42;100472.38;5057817;28;66376;-42
2021/05/14 11:45:47;;;;;;;12.48;3.08;;;;;;;33.63;55.50;100431.56;5049198;28;68976;-41
2021/05/14 11:48:22;;;;;;;18.48;4.18;;;;;;;33.88;55.81;100476.50;5056425;28;65229;-41
2021/05/14 11:50:59;;;;;;;14.50;4.00;;;;;;;33.65;55.63;100444.88;5055144;28;70299;-40
2021/05/14 11:53:31;;;;;;;21.83;3.95;;;;;;;33.79;56.06;100490.56;5055145;28;66495;-41
2021/05/14 11:56:05;;;;;;;20.17;4.70;;;;;;;33.79;56.51;100496.00;5053880;28;70443;-40